Time;durP1;ratioP1;P1;durP2;ratioP2;P2;SDS_P1;SDS_P2;PMS_P1;PMS_P2;Temp;Humidity;BMP_temperature;BMP_pressure;BME280_temperature;BME280_humidity;BME280_pressure;Samples;Min_cycle;Max_cycle;Signal;HPM_P1;HPM_P2
2023/01/17 00:01:59;;;;;;;;;;;7.90;99.90;;;;;;5092816;28;19994;-65
2023/01/17 00:09:55;;;;;;;;;;;8.00;99.90;;;;;;5088333;28;20395;-64
2023/01/17 00:12:22;;;;;;;;;;;7.90;99.90;;;;;;5089962;28;20022;-64
2023/01/17 00:14:48;;;;;;;;;;;7.90;99.90;;;;;;5089592;28;20400;-64
2023/01/17 00:17:13;;;;;;;;;;;8.00;99.90;;;;;;5089899;28;20003;-65
2023/01/17 01:34:09;;;;;;;;;;;8.20;99.90;;;;;;5078939;28;19919;-64
2023/01/17 01:36:34;;;;;;;;;;;8.30;99.90;;;;;;5066612;28;20001;-63
2023/01/17 01:39:00;;;;;;;;;;;8.30;99.90;;;;;;5068393;28;19912;-64
2023/01/17 01:41:26;;;;;;;;;;;8.30;99.90;;;;;;5091209;28;20368;-64
2023/01/17 01:43:52;;;;;;;;;;;8.30;99.90;;;;;;5070647;28;19912;-63
2023/01/17 01:46:21;;;;;;;;;;;8.20;99.90;;;;;;5072432;28;20308;-63
2023/01/17 01:48:49;;;;;;;;;;;8.30;99.90;;;;;;5072008;28;19915;-63
2023/01/17 01:51:18;;;;;;;;;;;8.30;99.90;;;;;;5072041;28;19916;-63
2023/01/17 01:53:46;;;;;;;;;;;8.30;99.90;;;;;;5073201;28;19915;-63
2023/01/17 01:56:13;;;;;;;;;;;8.30;99.90;;;;;;5092290;28;19908;-64
2023/01/17 01:58:40;;;;;;;;;;;8.30;99.90;;;;;;5074240;28;19908;-64
2023/01/17 02:01:07;;;;;;;;;;;8.30;99.90;;;;;;5092287;28;19908;-64
2023/01/17 02:03:33;;;;;;;;;;;8.30;99.90;;;;;;5055086;28;20085;-63
2023/01/17 02:06:03;;;;;;;;;;;8.30;99.90;;;;;;5072098;28;20366;-63
2023/01/17 02:08:29;;;;;;;;;;;8.30;99.90;;;;;;5079007;28;20289;-64
2023/01/17 02:10:54;;;;;;;;;;;8.30;99.90;;;;;;5074791;28;19924;-64
2023/01/17 02:13:20;;;;;;;;;;;8.30;99.90;;;;;;5079465;28;19916;-64
2023/01/17 02:16:04;;;;;;;;;;;8.30;99.90;;;;;;5077572;28;19923;-64
2023/01/17 02:18:49;;;;;;;;;;;8.30;99.90;;;;;;5075881;28;19921;-63
2023/01/17 02:21:22;;;;;;;;;;;8.40;99.90;;;;;;5083096;28;19959;-64
2023/01/17 02:24:07;;;;;;;;;;;8.50;99.90;;;;;;5078848;28;19916;-64
2023/01/17 02:26:46;;;;;;;;;;;8.50;99.90;;;;;;5099619;28;19920;-64
2023/01/17 02:29:24;;;;;;;;;;;8.50;99.90;;;;;;5104989;28;19918;-64
2023/01/17 02:31:49;;;;;;;;;;;8.40;99.90;;;;;;5078257;28;19912;-63
2023/01/17 02:34:19;;;;;;;;;;;8.30;99.90;;;;;;5079782;28;20208;-63
2023/01/17 02:36:54;;;;;;;;;;;8.30;99.90;;;;;;5077691;28;21807;-63
2023/01/17 02:39:21;;;;;;;;;;;8.40;99.90;;;;;;5077574;28;20286;-63
2023/01/17 02:41:55;;;;;;;;;;;8.40;99.90;;;;;;5075704;28;19919;-63
2023/01/17 02:44:21;;;;;;;;;;;8.40;99.90;;;;;;5077316;28;19920;-65
2023/01/17 02:46:56;;;;;;;;;;;8.60;99.90;;;;;;5091038;28;19926;-64
2023/01/17 02:49:27;;;;;;;;;;;8.50;99.90;;;;;;5114721;28;19950;-64
2023/01/17 02:51:59;;;;;;;;;;;8.50;99.90;;;;;;5089948;28;19915;-65
2023/01/17 02:54:39;;;;;;;;;;;8.50;99.90;;;;;;5105485;28;19915;-65
2023/01/17 02:57:12;;;;;;;;;;;8.60;99.90;;;;;;5081098;28;20019;-64
2023/01/17 03:00:02;;;;;;;;;;;8.50;99.90;;;;;;5061200;28;20010;-63
2023/01/17 03:02:39;;;;;;;;;;;8.50;99.90;;;;;;5076444;28;19959;-63
2023/01/17 03:05:12;;;;;;;;;;;8.40;99.90;;;;;;5075805;28;19942;-63
2023/01/17 03:07:38;;;;;;;;;;;8.40;99.90;;;;;;5058188;28;19920;-65
2023/01/17 03:10:04;;;;;;;;;;;8.50;99.90;;;;;;5071650;28;20509;-65
2023/01/17 03:12:32;;;;;;;;;;;8.50;99.90;;;;;;5076451;28;19920;-63
2023/01/17 03:14:57;;;;;;;;;;;8.50;99.90;;;;;;5074246;28;20390;-64
2023/01/17 03:17:25;;;;;;;;;;;8.50;99.90;;;;;;5075168;28;19919;-64
2023/01/17 03:19:51;;;;;;;;;;;8.40;99.90;;;;;;5072836;28;19919;-64
2023/01/17 03:22:17;;;;;;;;;;;8.40;99.90;;;;;;5073758;28;20023;-64
2023/01/17 03:24:42;;;;;;;;;;;8.40;99.90;;;;;;5061759;28;20234;-64
2023/01/17 03:27:08;;;;;;;;;;;8.30;99.90;;;;;;5073632;28;20316;-64
2023/01/17 03:29:33;;;;;;;;;;;8.40;99.90;;;;;;5074974;28;20003;-63
2023/01/17 03:31:59;;;;;;;;;;;8.40;99.90;;;;;;5098373;28;20382;-63
2023/01/17 03:34:25;;;;;;;;;;;8.40;99.90;;;;;;5090128;28;19908;-63
2023/01/17 03:36:50;;;;;;;;;;;8.40;99.90;;;;;;5061311;28;19957;-62
2023/01/17 03:39:16;;;;;;;;;;;8.40;99.90;;;;;;5089300;28;19916;-63
2023/01/17 03:41:41;;;;;;;;;;;8.40;99.90;;;;;;5092494;28;19920;-63
2023/01/17 03:44:07;;;;;;;;;;;8.50;99.90;;;;;;5073293;28;20010;-63
2023/01/17 03:46:32;;;;;;;;;;;8.40;99.90;;;;;;5083333;28;19919;-63
2023/01/17 03:48:58;;;;;;;;;;;8.50;99.90;;;;;;5110029;28;19908;-63
2023/01/17 03:51:24;;;;;;;;;;;8.50;99.90;;;;;;5101680;28;19907;-63
2023/01/17 03:53:50;;;;;;;;;;;8.50;99.90;;;;;;5100952;28;19912;-65
2023/01/17 03:56:16;;;;;;;;;;;8.50;99.90;;;;;;5103028;28;19915;-63
2023/01/17 03:58:42;;;;;;;;;;;8.40;99.90;;;;;;5110077;28;19956;-64
2023/01/17 04:01:08;;;;;;;;;;;8.40;99.90;;;;;;5083423;28;19990;-64
2023/01/17 04:03:33;;;;;;;;;;;8.40;99.90;;;;;;5101138;28;19919;-64
2023/01/17 04:05:59;;;;;;;;;;;8.40;99.90;;;;;;5084261;28;19927;-64
2023/01/17 04:08:25;;;;;;;;;;;8.40;99.90;;;;;;5093611;28;19982;-65
2023/01/17 04:10:50;;;;;;;;;;;8.40;99.90;;;;;;5093707;28;19912;-64
2023/01/17 04:13:16;;;;;;;;;;;8.40;99.90;;;;;;5093096;28;20316;-64
2023/01/17 04:15:47;;;;;;;;;;;8.30;99.90;;;;;;5082197;28;19911;-63
2023/01/17 04:18:13;;;;;;;;;;;8.30;99.90;;;;;;5088604;28;20011;-65
2023/01/17 04:20:39;;;;;;;;;;;8.30;99.90;;;;;;5071847;28;19967;-64
2023/01/17 04:23:05;;;;;;;;;;;8.30;99.90;;;;;;5104766;28;19934;-62
2023/01/17 04:25:31;;;;;;;;;;;8.40;99.90;;;;;;5081727;28;19915;-63
2023/01/17 04:27:57;;;;;;;;;;;8.40;99.90;;;;;;5068923;28;19912;-64
2023/01/17 04:30:23;;;;;;;;;;;8.40;99.90;;;;;;5100901;28;19977;-64
2023/01/17 04:32:49;;;;;;;;;;;8.40;99.90;;;;;;5090700;28;20371;-64
2023/01/17 04:35:14;;;;;;;;;;;8.40;99.90;;;;;;5101129;28;19923;-64
2023/01/17 04:37:40;;;;;;;;;;;8.40;99.90;;;;;;5102416;28;19912;-64
2023/01/17 04:40:06;;;;;;;;;;;8.50;99.90;;;;;;5087126;28;19912;-64
2023/01/17 04:42:32;;;;;;;;;;;8.40;99.90;;;;;;5093006;28;19912;-64
2023/01/17 04:44:57;;;;;;;;;;;8.40;99.90;;;;;;5077676;28;19981;-64
2023/01/17 04:47:23;;;;;;;;;;;8.40;99.90;;;;;;5084975;28;19912;-64
2023/01/17 04:49:48;;;;;;;;;;;8.40;99.90;;;;;;5093462;28;19960;-64
2023/01/17 04:52:17;;;;;;;;;;;8.40;99.90;;;;;;5105679;28;20334;-64
2023/01/17 04:54:43;;;;;;;;;;;8.40;99.90;;;;;;5103692;28;19994;-64
2023/01/17 04:57:08;;;;;;;;;;;8.40;99.90;;;;;;5073469;28;20010;-64
2023/01/17 04:59:34;;;;;;;;;;;8.40;99.90;;;;;;5075019;28;19977;-63
2023/01/17 05:01:59;;;;;;;;;;;8.40;99.90;;;;;;5071277;28;19927;-63
2023/01/17 05:04:25;;;;;;;;;;;8.40;99.90;;;;;;5058163;28;19936;-63
2023/01/17 05:06:50;;;;;;;;;;;8.40;99.90;;;;;;5007706;28;1953041;-64
2023/01/17 05:09:16;;;;;;;;;;;8.40;99.90;;;;;;5074929;28;19916;-63
2023/01/17 05:11:42;;;;;;;;;;;8.50;99.90;;;;;;5075559;28;19967;-64
2023/01/17 05:14:08;;;;;;;;;;;8.50;99.90;;;;;;5075655;28;20492;-64
2023/01/17 05:16:34;;;;;;;;;;;8.60;99.90;;;;;;5066618;28;20552;-64
2023/01/17 05:19:00;;;;;;;;;;;8.50;99.90;;;;;;5055260;28;19952;-64
2023/01/17 05:21:26;;;;;;;;;;;8.50;99.90;;;;;;5095724;28;19916;-65
2023/01/17 05:23:52;;;;;;;;;;;8.60;99.90;;;;;;5099915;28;20419;-65
2023/01/17 05:26:18;;;;;;;;;;;8.60;99.90;;;;;;5074277;28;20535;-65
2023/01/17 05:28:43;;;;;;;;;;;8.60;99.90;;;;;;5109426;28;20365;-65
2023/01/17 05:31:09;;;;;;;;;;;8.60;99.90;;;;;;5098772;28;19920;-63
2023/01/17 05:33:35;;;;;;;;;;;8.50;99.90;;;;;;5105758;28;20009;-66
2023/01/17 05:36:00;;;;;;;;;;;8.50;99.90;;;;;;5081485;28;19912;-64
2023/01/17 05:38:26;;;;;;;;;;;8.50;99.90;;;;;;5095289;28;19984;-64
2023/01/17 05:40:51;;;;;;;;;;;8.60;99.90;;;;;;5077881;28;19991;-66
2023/01/17 05:43:17;;;;;;;;;;;8.50;99.90;;;;;;5063911;28;19955;-65
2023/01/17 05:45:43;;;;;;;;;;;8.50;99.90;;;;;;5088782;28;20293;-64
2023/01/17 05:48:08;;;;;;;;;;;8.60;99.90;;;;;;5089477;28;19908;-65
2023/01/17 05:50:35;;;;;;;;;;;8.60;99.90;;;;;;5089044;28;20324;-65
2023/01/17 05:53:02;;;;;;;;;;;8.60;99.90;;;;;;5074194;28;19909;-64
2023/01/17 05:55:28;;;;;;;;;;;8.50;99.90;;;;;;5071960;28;20323;-64
2023/01/17 05:57:54;;;;;;;;;;;8.50;99.90;;;;;;5073947;28;19955;-64
2023/01/17 06:00:20;;;;;;;;;;;8.60;99.90;;;;;;5093279;28;20011;-63
2023/01/17 06:02:46;;;;;;;;;;;8.50;99.90;;;;;;5069423;28;20317;-64
2023/01/17 06:05:12;;;;;;;;;;;8.50;99.90;;;;;;5068536;28;19988;-64
2023/01/17 06:07:37;;;;;;;;;;;8.50;99.90;;;;;;5076787;28;19947;-64
2023/01/17 06:10:04;;;;;;;;;;;8.50;99.90;;;;;;5089930;28;19969;-66
2023/01/17 06:12:29;;;;;;;;;;;8.50;99.90;;;;;;5079677;28;19961;-63
2023/01/17 06:14:55;;;;;;;;;;;8.40;99.90;;;;;;5098434;28;19911;-66
2023/01/17 06:17:20;;;;;;;;;;;8.30;99.90;;;;;;5082405;28;20012;-64
2023/01/17 06:19:46;;;;;;;;;;;8.30;99.90;;;;;;5084297;28;19917;-63
2023/01/17 06:22:12;;;;;;;;;;;8.40;99.90;;;;;;5094925;28;19912;-65
2023/01/17 06:24:37;;;;;;;;;;;8.30;99.90;;;;;;5099182;28;19927;-63
2023/01/17 06:27:03;;;;;;;;;;;8.40;99.90;;;;;;5062738;28;19916;-64
2023/01/17 06:29:29;;;;;;;;;;;8.40;99.90;;;;;;5105019;28;20403;-64
2023/01/17 06:31:54;;;;;;;;;;;8.30;99.90;;;;;;5099895;28;19966;-63
2023/01/17 06:34:20;;;;;;;;;;;8.30;99.90;;;;;;5108365;28;20565;-65
2023/01/17 06:36:45;;;;;;;;;;;8.30;99.90;;;;;;5105864;28;19908;-64
2023/01/17 06:39:11;;;;;;;;;;;8.30;99.90;;;;;;5064910;28;19920;-65
2023/01/17 06:41:36;;;;;;;;;;;8.40;99.90;;;;;;5097712;28;20022;-64
2023/01/17 06:44:02;;;;;;;;;;;8.30;99.90;;;;;;5088504;28;19939;-63
2023/01/17 06:46:28;;;;;;;;;;;8.30;99.90;;;;;;5065376;28;19961;-64
2023/01/17 06:48:53;;;;;;;;;;;8.20;99.90;;;;;;5073963;28;19928;-63
2023/01/17 06:51:19;;;;;;;;;;;8.20;99.90;;;;;;5076882;28;19919;-63
2023/01/17 06:53:46;;;;;;;;;;;8.30;99.90;;;;;;5078118;28;19927;-63
2023/01/17 06:56:11;;;;;;;;;;;8.20;99.90;;;;;;5074269;28;19963;-63
2023/01/17 06:58:37;;;;;;;;;;;8.30;99.90;;;;;;5075024;28;20362;-64
2023/01/17 07:01:07;;;;;;;;;;;8.30;99.90;;;;;;5074100;28;19916;-62
2023/01/17 07:03:32;;;;;;;;;;;8.40;99.90;;;;;;5063149;28;19916;-64
2023/01/17 07:06:00;;;;;;;;;;;8.40;99.90;;;;;;5075283;28;20412;-63
2023/01/17 07:08:25;;;;;;;;;;;8.50;99.90;;;;;;5074231;28;19947;-63
2023/01/17 07:10:56;;;;;;;;;;;8.50;99.90;;;;;;5077332;28;20507;-63
2023/01/17 07:13:22;;;;;;;;;;;8.50;99.90;;;;;;5075043;28;19919;-63
2023/01/17 07:15:47;;;;;;;;;;;8.50;99.90;;;;;;5060583;28;19912;-64
2023/01/17 07:18:13;;;;;;;;;;;8.50;99.90;;;;;;5072880;28;19917;-62
2023/01/17 07:20:40;;;;;;;;;;;8.50;99.90;;;;;;5075805;28;19947;-64
2023/01/17 07:23:05;;;;;;;;;;;8.50;99.90;;;;;;5074965;28;19913;-64
2023/01/17 07:25:31;;;;;;;;;;;8.50;99.90;;;;;;5092048;28;19993;-63
2023/01/17 07:27:56;;;;;;;;;;;8.60;99.90;;;;;;5098838;28;19912;-63
2023/01/17 07:30:23;;;;;;;;;;;8.70;99.90;;;;;;5101698;28;20332;-64
2023/01/17 07:32:52;;;;;;;;;;;8.80;99.90;;;;;;5110966;28;19915;-65
2023/01/17 07:35:18;;;;;;;;;;;9.00;99.90;;;;;;5094177;28;20026;-63
2023/01/17 07:37:47;;;;;;;;;;;8.90;99.90;;;;;;5079769;28;20105;-64
2023/01/17 07:40:13;;;;;;;;;;;8.80;99.90;;;;;;5101922;28;19912;-63
2023/01/17 07:42:39;;;;;;;;;;;8.70;99.90;;;;;;5086220;28;20385;-63
2023/01/17 07:45:05;;;;;;;;;;;8.70;99.90;;;;;;5090342;28;19919;-64
2023/01/17 07:47:32;;;;;;;;;;;8.70;99.90;;;;;;5072434;28;19909;-63
2023/01/17 07:50:00;;;;;;;;;;;8.60;99.90;;;;;;5072065;28;19957;-64
2023/01/17 07:52:25;;;;;;;;;;;8.60;99.90;;;;;;5071598;28;19909;-64
2023/01/17 07:54:51;;;;;;;;;;;8.60;99.90;;;;;;5058687;28;20389;-65
2023/01/17 07:57:16;;;;;;;;;;;8.60;99.90;;;;;;5090793;28;19919;-63
2023/01/17 07:59:42;;;;;;;;;;;8.60;99.90;;;;;;5089627;28;19912;-63
2023/01/17 08:02:16;;;;;;;;;;;8.70;99.90;;;;;;5072289;28;19908;-61
2023/01/17 08:04:42;;;;;;;;;;;8.80;99.90;;;;;;5090515;28;19908;-61
2023/01/17 08:07:07;;;;;;;;;;;8.90;99.90;;;;;;5095252;28;20059;-60
2023/01/17 08:09:33;;;;;;;;;;;9.00;99.90;;;;;;5073767;28;19916;-63
2023/01/17 08:11:58;;;;;;;;;;;9.10;99.90;;;;;;5087819;28;20523;-62
2023/01/17 08:14:24;;;;;;;;;;;9.10;99.90;;;;;;5073044;28;19912;-62
2023/01/17 08:16:50;;;;;;;;;;;9.10;99.90;;;;;;5104123;28;19964;-63
2023/01/17 08:19:16;;;;;;;;;;;9.10;99.90;;;;;;5080795;28;19912;-63
2023/01/17 08:21:41;;;;;;;;;;;9.20;99.90;;;;;;5102217;28;19912;-62
2023/01/17 08:24:11;;;;;;;;;;;9.20;99.90;;;;;;5102323;28;19919;-62
2023/01/17 08:26:36;;;;;;;;;;;9.20;99.90;;;;;;5091518;28;20010;-63
2023/01/17 08:29:02;;;;;;;;;;;9.20;99.90;;;;;;5094945;28;20310;-62
2023/01/17 08:31:29;;;;;;;;;;;9.20;99.90;;;;;;5107636;28;19951;-63
2023/01/17 08:33:55;;;;;;;;;;;9.30;99.90;;;;;;5110050;28;19954;-62
2023/01/17 08:36:20;;;;;;;;;;;9.30;99.90;;;;;;5104382;28;20339;-62
2023/01/17 08:38:49;;;;;;;;;;;9.30;99.90;;;;;;5086900;28;19955;-62
2023/01/17 08:41:15;;;;;;;;;;;9.30;99.90;;;;;;5084061;28;19965;-62
2023/01/17 08:43:40;;;;;;;;;;;9.40;99.90;;;;;;5100288;28;19912;-63
2023/01/17 08:46:06;;;;;;;;;;;9.40;99.90;;;;;;5104811;28;19922;-62
2023/01/17 08:48:31;;;;;;;;;;;9.50;99.90;;;;;;5100434;28;20405;-61
2023/01/17 08:51:01;;;;;;;;;;;9.50;99.90;;;;;;5094989;28;19916;-62
2023/01/17 08:53:26;;;;;;;;;;;9.50;99.90;;;;;;5102349;28;19919;-62
2023/01/17 08:56:02;;;;;;;;;;;9.40;99.90;;;;;;5106051;28;19912;-63
2023/01/17 08:58:29;;;;;;;;;;;9.40;99.90;;;;;;5094509;28;20018;-61
2023/01/17 09:00:58;;;;;;;;;;;9.40;99.90;;;;;;5072495;28;19954;-61
2023/01/17 09:03:23;;;;;;;;;;;9.50;99.90;;;;;;5098476;28;19983;-62
2023/01/17 09:05:49;;;;;;;;;;;9.50;99.90;;;;;;5099371;28;20388;-62
2023/01/17 09:08:14;;;;;;;;;;;9.50;99.90;;;;;;5079750;28;19937;-60
2023/01/17 09:10:40;;;;;;;;;;;9.60;99.90;;;;;;5088609;28;19919;-61
2023/01/17 09:13:06;;;;;;;;;;;9.60;99.90;;;;;;5109477;28;20361;-62
2023/01/17 09:15:31;;;;;;;;;;;9.70;99.90;;;;;;5101843;28;19916;-62
2023/01/17 09:17:57;;;;;;;;;;;9.80;99.90;;;;;;5090963;28;20365;-62
2023/01/17 09:20:23;;;;;;;;;;;9.90;99.90;;;;;;5104579;28;20046;-62
2023/01/17 09:22:49;;;;;;;;;;;10.00;99.90;;;;;;5080330;28;20033;-62
2023/01/17 09:25:14;;;;;;;;;;;10.10;99.90;;;;;;5079228;28;19947;-64
2023/01/17 09:27:43;;;;;;;;;;;10.20;99.90;;;;;;5096817;28;19994;-63
2023/01/17 09:30:09;;;;;;;;;;;10.30;99.90;;;;;;5103003;28;20255;-63
2023/01/17 09:32:35;;;;;;;;;;;10.40;99.90;;;;;;5102091;28;19915;-61
2023/01/17 09:35:02;;;;;;;;;;;10.40;99.90;;;;;;5085146;28;19911;-64
2023/01/17 09:37:27;;;;;;;;;;;10.40;99.90;;;;;;5079819;28;19977;-62
2023/01/17 09:39:53;;;;;;;;;;;10.30;99.90;;;;;;5100972;28;19920;-63
2023/01/17 09:42:20;;;;;;;;;;;10.40;99.90;;;;;;5073894;28;19909;-62
2023/01/17 09:44:50;;;;;;;;;;;10.40;99.90;;;;;;5093452;28;19934;-62
2023/01/17 09:47:18;;;;;;;;;;;10.40;99.90;;;;;;5093021;28;19912;-62
2023/01/17 09:49:45;;;;;;;;;;;10.40;99.90;;;;;;5088272;28;19915;-62
2023/01/17 09:52:13;;;;;;;;;;;10.50;99.90;;;;;;5073829;28;19994;-61
2023/01/17 09:54:43;;;;;;;;;;;10.50;99.90;;;;;;5060291;28;19908;-63
2023/01/17 09:57:15;;;;;;;;;;;10.50;99.90;;;;;;5092757;28;19911;-62
2023/01/17 10:00:00;;;;;;;;;;;10.60;99.90;;;;;;5073279;28;19909;-61
2023/01/17 10:02:26;;;;;;;;;;;10.60;99.90;;;;;;5050925;28;19913;-63
2023/01/17 10:05:10;;;;;;;;;;;10.70;99.90;;;;;;5072602;28;19908;-63
2023/01/17 10:07:43;;;;;;;;;;;10.60;99.90;;;;;;5085587;28;20285;-62
2023/01/17 10:10:34;;;;;;;;;;;10.60;99.90;;;;;;5097439;28;20386;-61
2023/01/17 10:13:23;;;;;;;;;;;10.60;99.90;;;;;;5085859;28;20397;-63
2023/01/17 10:16:07;;;;;;;;;;;10.70;99.90;;;;;;5099408;28;19911;-63
2023/01/17 10:18:53;;;;;;;;;;;10.60;99.90;;;;;;5099830;28;20241;-63
2023/01/17 10:21:18;;;;;;;;;;;10.70;99.90;;;;;;5101846;28;19912;-63
2023/01/17 10:23:47;;;;;;;;;;;10.70;99.90;;;;;;5094450;28;20322;-63
2023/01/17 10:26:33;;;;;;;;;;;10.70;99.90;;;;;;5075745;28;19916;-62
2023/01/17 10:29:01;;;;;;;;;;;10.70;99.90;;;;;;5096064;28;20281;-63
2023/01/17 10:31:29;;;;;;;;;;;10.60;99.90;;;;;;5070325;28;19917;-64
2023/01/17 10:33:56;;;;;;;;;;;10.50;99.90;;;;;;5073391;28;20396;-64
2023/01/17 10:36:23;;;;;;;;;;;10.30;99.90;;;;;;5108345;28;19919;-63
2023/01/17 10:38:56;;;;;;;;;;;10.20;99.90;;;;;;5080697;28;19956;-65
2023/01/17 10:41:22;;;;;;;;;;;10.10;99.90;;;;;;5079460;28;20342;-65
2023/01/17 10:43:54;;;;;;;;;;;10.00;99.90;;;;;;5109586;28;19955;-64
2023/01/17 10:46:32;;;;;;;;;;;9.90;99.90;;;;;;5097501;28;19916;-64
2023/01/17 10:49:00;;;;;;;;;;;9.80;99.90;;;;;;5073914;28;19935;-62
2023/01/17 10:51:48;;;;;;;;;;;9.70;99.90;;;;;;5088047;28;19920;-63
2023/01/17 10:54:34;;;;;;;;;;;9.60;99.90;;;;;;5075897;28;20452;-62
2023/01/17 10:57:00;;;;;;;;;;;9.60;99.90;;;;;;5099288;28;19919;-64
2023/01/17 10:59:33;;;;;;;;;;;9.50;99.90;;;;;;5110175;28;19995;-62
2023/01/17 11:02:00;;;;;;;;;;;9.50;99.90;;;;;;5101848;28;19928;-63
2023/01/17 11:04:35;;;;;;;;;;;9.50;99.90;;;;;;5104010;28;19912;-63
2023/01/17 11:07:11;;;;;;;;;;;9.40;99.90;;;;;;5112190;28;20376;-63
2023/01/17 11:09:37;;;;;;;;;;;9.50;99.90;;;;;;5102972;28;19964;-62
2023/01/17 11:12:03;;;;;;;;;;;9.50;99.90;;;;;;5086612;28;20422;-63
2023/01/17 11:14:29;;;;;;;;;;;9.40;99.90;;;;;;5103444;28;19920;-63
2023/01/17 11:17:04;;;;;;;;;;;9.30;99.90;;;;;;5073435;28;19916;-62
2023/01/17 11:19:34;;;;;;;;;;;9.30;99.90;;;;;;5096641;28;21247;-62
2023/01/17 11:22:03;;;;;;;;;;;9.40;99.90;;;;;;5098625;28;19989;-63
2023/01/17 11:24:32;;;;;;;;;;;9.30;99.90;;;;;;5105272;28;19920;-64
2023/01/17 11:26:57;;;;;;;;;;;9.20;99.90;;;;;;5102020;28;20065;-60
2023/01/17 11:29:26;;;;;;;;;;;9.20;99.90;;;;;;5095887;28;19947;-63
2023/01/17 11:31:55;;;;;;;;;;;9.10;99.90;;;;;;5092434;28;19916;-61
2023/01/17 11:34:25;;;;;;;;;;;9.10;99.90;;;;;;5079165;28;19922;-63
2023/01/17 11:37:08;;;;;;;;;;;9.10;99.90;;;;;;5097010;28;19919;-61
2023/01/17 11:39:34;;;;;;;;;;;9.10;99.90;;;;;;5093971;28;20356;-62
2023/01/17 11:41:59;;;;;;;;;;;9.10;99.90;;;;;;5092710;28;19911;-62
2023/01/17 11:44:26;;;;;;;;;;;9.10;99.90;;;;;;5096071;28;19959;-62
2023/01/17 11:47:10;;;;;;;;;;;9.00;99.90;;;;;;5092210;28;19920;-63
2023/01/17 11:49:36;;;;;;;;;;;9.00;99.90;;;;;;5092932;28;19908;-65
2023/01/17 11:52:28;;;;;;;;;;;9.00;99.90;;;;;;5074936;28;19988;-63
2023/01/17 11:54:55;;;;;;;;;;;9.00;99.90;;;;;;5097089;28;19922;-63
2023/01/17 11:57:29;;;;;;;;;;;9.00;99.90;;;;;;5085077;28;19912;-63
2023/01/17 11:59:57;;;;;;;;;;;8.90;99.90;;;;;;5093465;28;20397;-65
2023/01/17 12:02:30;;;;;;;;;;;8.90;99.90;;;;;;5089888;28;19924;-62
2023/01/17 12:05:09;;;;;;;;;;;8.90;99.90;;;;;;5078130;28;19912;-61
2023/01/17 12:07:37;;;;;;;;;;;8.80;99.90;;;;;;5084180;28;19920;-62
2023/01/17 12:10:16;;;;;;;;;;;8.80;99.90;;;;;;5086522;28;20382;-65
2023/01/17 12:15:38;;;;;;;;;;;8.60;99.90;;;;;;5087351;28;20074;-62
2023/01/17 12:18:23;;;;;;;;;;;8.60;99.90;;;;;;5100320;28;20012;-63
2023/01/17 12:21:01;;;;;;;;;;;8.50;99.90;;;;;;5083211;28;19917;-63
2023/01/17 12:23:32;;;;;;;;;;;8.50;99.90;;;;;;5102128;28;19924;-63
2023/01/17 12:25:58;;;;;;;;;;;8.20;99.90;;;;;;5090689;28;19964;-63
2023/01/17 12:29:02;;;;;;;;;;;8.00;99.90;;;;;;5101542;28;19912;-65
2023/01/17 12:31:47;;;;;;;;;;;8.00;99.90;;;;;;5004248;28;20094;-59
2023/01/17 12:34:29;;;;;;;;;;;7.90;99.90;;;;;;5004597;28;19949;-63
2023/01/17 12:37:13;;;;;;;;;;;7.90;99.90;;;;;;5047418;28;19934;-63
2023/01/17 12:39:41;;;;;;;;;;;7.80;99.90;;;;;;5082593;28;20284;-63
2023/01/17 12:42:12;;;;;;;;;;;7.80;99.90;;;;;;5080873;28;19920;-63
2023/01/17 12:44:48;;;;;;;;;;;7.80;99.90;;;;;;5087896;28;19989;-62
2023/01/17 12:47:14;;;;;;;;;;;7.70;99.90;;;;;;5093564;28;19962;-63
2023/01/17 12:49:52;;;;;;;;;;;7.70;99.90;;;;;;5076450;28;19912;-65
2023/01/17 12:52:17;;;;;;;;;;;7.60;99.90;;;;;;5079703;28;20011;-65
2023/01/17 12:54:46;;;;;;;;;;;7.50;99.90;;;;;;5100854;28;19919;-64
2023/01/17 12:57:14;;;;;;;;;;;7.40;99.90;;;;;;5101145;28;19921;-63
2023/01/17 12:59:53;;;;;;;;;;;7.20;99.90;;;;;;5085589;28;19971;-63
2023/01/17 13:02:31;;;;;;;;;;;7.10;99.90;;;;;;5083304;28;19974;-65
2023/01/17 13:05:02;;;;;;;;;;;7.10;99.90;;;;;;5073064;28;19919;-64
2023/01/17 13:07:27;;;;;;;;;;;7.20;99.90;;;;;;5107033;28;20216;-64
2023/01/17 13:10:13;;;;;;;;;;;7.10;99.90;;;;;;5108365;28;19937;-64
2023/01/17 13:12:38;;;;;;;;;;;7.10;99.90;;;;;;5091898;28;20062;-64
2023/01/17 13:15:17;;;;;;;;;;;7.30;99.90;;;;;;5102713;28;20381;-65
2023/01/17 13:17:51;;;;;;;;;;;7.30;99.90;;;;;;5097022;28;19916;-65
2023/01/17 13:20:45;;;;;;;;;;;7.30;99.90;;;;;;5108994;28;20479;-64
2023/01/17 13:23:34;;;;;;;;;;;7.40;99.90;;;;;;5008278;28;20291;-64
2023/01/17 13:26:00;;;;;;;;;;;7.30;99.90;;;;;;5060059;28;19977;-66
2023/01/17 13:28:41;;;;;;;;;;;7.30;99.90;;;;;;5073722;28;19994;-65
2023/01/17 13:31:39;;;;;;;;;;;7.30;99.90;;;;;;5109931;28;19916;-65
2023/01/17 13:34:23;;;;;;;;;;;7.30;99.90;;;;;;5056520;28;20553;-64
2023/01/17 13:37:07;;;;;;;;;;;7.20;99.90;;;;;;5074447;28;20027;-64
2023/01/17 13:39:52;;;;;;;;;;;7.20;99.90;;;;;;5082684;28;20421;-63
2023/01/17 13:42:23;;;;;;;;;;;7.20;99.90;;;;;;5105999;28;20346;-64
2023/01/17 13:44:49;;;;;;;;;;;7.20;99.90;;;;;;5096224;28;20533;-63
2023/01/17 13:47:18;;;;;;;;;;;7.10;99.90;;;;;;5097005;28;20007;-65
2023/01/17 13:49:46;;;;;;;;;;;7.10;99.90;;;;;;5088654;28;19966;-64
2023/01/17 13:52:17;;;;;;;;;;;7.10;99.90;;;;;;5093426;28;19966;-65
2023/01/17 13:54:50;;;;;;;;;;;7.10;99.90;;;;;;5092433;28;20019;-65
2023/01/17 13:57:22;;;;;;;;;;;7.10;99.90;;;;;;5087089;28;19915;-64
2023/01/17 13:59:48;;;;;;;;;;;7.20;99.90;;;;;;5105501;28;19912;-64
2023/01/17 14:02:34;;;;;;;;;;;7.30;99.90;;;;;;5113891;28;19919;-65
2023/01/17 14:05:15;;;;;;;;;;;7.30;99.90;;;;;;5095372;28;19919;-64
2023/01/17 14:07:46;;;;;;;;;;;7.20;99.90;;;;;;5069366;28;19935;-66
2023/01/17 14:10:39;;;;;;;;;;;7.20;99.90;;;;;;5057446;28;19987;-65
2023/01/17 14:13:28;;;;;;;;;;;7.20;99.90;;;;;;5062156;28;20401;-64
2023/01/17 14:15:55;;;;;;;;;;;7.20;99.90;;;;;;5096101;28;19913;-63
2023/01/17 14:18:26;;;;;;;;;;;7.20;99.90;;;;;;5068936;28;20393;-64
2023/01/17 14:21:03;;;;;;;;;;;7.20;99.90;;;;;;5094781;28;20262;-64
2023/01/17 14:23:31;;;;;;;;;;;7.30;99.90;;;;;;5091804;28;19986;-65
2023/01/17 14:25:59;;;;;;;;;;;7.20;99.90;;;;;;5091395;28;19916;-62
2023/01/17 14:28:24;;;;;;;;;;;7.20;99.90;;;;;;5074032;28;20516;-64
2023/01/17 14:30:55;;;;;;;;;;;7.20;99.90;;;;;;5085670;28;19911;-66
2023/01/17 14:33:29;;;;;;;;;;;7.30;99.90;;;;;;5095804;28;19908;-64
2023/01/17 14:36:00;;;;;;;;;;;7.40;99.90;;;;;;5114896;28;19908;-65
2023/01/17 14:38:26;;;;;;;;;;;7.40;99.90;;;;;;5095486;28;19907;-66
2023/01/17 14:40:52;;;;;;;;;;;7.40;99.90;;;;;;5088171;28;19911;-65
2023/01/17 14:43:19;;;;;;;;;;;7.40;99.90;;;;;;5120302;28;20234;-65
2023/01/17 14:45:45;;;;;;;;;;;7.40;99.90;;;;;;5113130;28;20330;-65
2023/01/17 14:48:15;;;;;;;;;;;7.50;99.90;;;;;;5113084;28;20002;-65
2023/01/17 14:50:42;;;;;;;;;;;7.50;99.90;;;;;;5106328;28;20317;-65
2023/01/17 14:53:11;;;;;;;;;;;7.50;99.90;;;;;;5089644;28;19966;-65
2023/01/17 14:55:37;;;;;;;;;;;7.60;99.90;;;;;;5066168;28;19952;-64
2023/01/17 14:58:04;;;;;;;;;;;7.60;99.90;;;;;;5093566;28;19912;-63
2023/01/17 15:00:33;;;;;;;;;;;7.50;99.90;;;;;;5101386;28;19919;-66
2023/01/17 15:03:01;;;;;;;;;;;7.50;99.90;;;;;;5114026;28;19930;-62
2023/01/17 15:05:28;;;;;;;;;;;7.60;99.90;;;;;;5095355;28;20423;-63
2023/01/17 15:07:55;;;;;;;;;;;7.60;99.90;;;;;;5080520;28;19916;-62
2023/01/17 15:10:25;;;;;;;;;;;7.70;99.90;;;;;;5097283;28;19916;-65
2023/01/17 15:12:51;;;;;;;;;;;7.70;99.90;;;;;;5112111;28;19911;-64
2023/01/17 15:15:29;;;;;;;;;;;7.80;99.90;;;;;;5113771;28;20395;-64
2023/01/17 15:18:19;;;;;;;;;;;7.80;99.90;;;;;;5106115;28;20465;-65
2023/01/17 15:21:05;;;;;;;;;;;7.80;99.90;;;;;;5075511;28;19979;-62
2023/01/17 15:23:45;;;;;;;;;;;7.90;99.90;;;;;;5073333;28;19917;-66
2023/01/17 15:26:15;;;;;;;;;;;7.80;99.90;;;;;;5075982;28;19981;-64
2023/01/17 15:28:46;;;;;;;;;;;7.80;99.90;;;;;;5088421;28;19912;-65
2023/01/17 15:31:40;;;;;;;;;;;7.70;99.90;;;;;;5063828;28;19912;-63
2023/01/17 15:34:19;;;;;;;;;;;7.60;99.90;;;;;;5101765;28;19935;-65
2023/01/17 15:36:55;;;;;;;;;;;7.60;99.90;;;;;;5084561;28;19947;-63
2023/01/17 15:39:39;;;;;;;;;;;7.60;99.90;;;;;;5075340;28;19912;-63
2023/01/17 15:42:08;;;;;;;;;;;7.60;99.90;;;;;;5096562;28;19918;-63
2023/01/17 15:44:36;;;;;;;;;;;7.60;99.90;;;;;;5112471;28;19915;-63
2023/01/17 15:47:02;;;;;;;;;;;7.50;99.90;;;;;;5104995;28;20003;-65
2023/01/17 15:49:28;;;;;;;;;;;7.40;99.90;;;;;;5090655;28;19939;-64
2023/01/17 15:52:09;;;;;;;;;;;7.40;99.90;;;;;;5111448;28;19912;-64
2023/01/17 15:54:56;;;;;;;;;;;7.40;99.90;;;;;;5102981;28;19946;-63
2023/01/17 15:57:25;;;;;;;;;;;7.30;99.90;;;;;;5083633;28;20346;-63
2023/01/17 15:59:59;;;;;;;;;;;7.30;99.90;;;;;;5084600;28;19912;-63
2023/01/17 16:02:29;;;;;;;;;;;7.30;99.90;;;;;;5052569;28;20373;-63
2023/01/17 16:04:54;;;;;;;;;;;7.40;99.90;;;;;;5070395;28;19966;-64
2023/01/17 16:07:21;;;;;;;;;;;7.40;99.90;;;;;;5097652;28;20280;-66